createdAt,value
2023-02-25T05:02:07.845Z,22.33
2023-02-25T05:04:36.024Z,22.28
2023-02-25T05:07:02.978Z,22.36
2023-02-25T05:09:29.858Z,22.22
2023-02-25T05:11:57.578Z,21.92
2023-02-25T05:14:24.290Z,22.21
2023-02-25T05:16:53.407Z,22.30
2023-02-25T05:19:23.231Z,22.05
2023-02-25T05:21:53.156Z,22.24
2023-02-25T05:24:21.217Z,22.01
2023-02-25T05:29:20.774Z,22.27
2023-02-25T05:31:49.753Z,22.24
2023-02-25T05:34:16.703Z,22.33
2023-02-25T05:36:43.420Z,22.27
2023-02-25T05:39:12.012Z,22.16
2023-02-25T05:41:39.072Z,22.07
2023-02-25T05:44:05.954Z,22.26
2023-02-25T05:46:32.757Z,22.32
2023-02-25T05:48:59.595Z,21.79
2023-02-25T05:51:26.439Z,22.24
2023-02-25T05:53:53.286Z,22.27
2023-02-25T05:56:22.555Z,22.29
2023-02-25T05:58:49.695Z,22.22
2023-02-25T06:01:22.818Z,22.29
2023-02-25T06:06:17.965Z,22.31
2023-02-25T06:08:45.017Z,22.13
2023-02-25T06:11:14.476Z,22.12
2023-02-25T06:13:42.401Z,21.93
2023-02-25T06:16:09.307Z,21.98
2023-02-25T06:18:39.904Z,21.99
2023-02-25T06:21:09.094Z,22.25
2023-02-25T06:23:36.201Z,22.02
2023-02-25T06:26:03.071Z,22.19
2023-02-25T06:28:29.803Z,22.02
2023-02-25T06:30:56.523Z,22.12
2023-02-25T06:33:23.323Z,22.02
2023-02-25T06:35:54.740Z,22.19
2023-02-25T06:38:22.285Z,22.07
2023-02-25T06:40:49.690Z,22.03
2023-02-25T06:43:17.092Z,21.99
2023-02-25T06:45:50.474Z,21.84
2023-02-25T06:48:17.399Z,22.19
2023-02-25T06:50:44.210Z,21.88
2023-02-25T06:53:12.001Z,22.02
2023-02-25T06:55:39.468Z,22.20
2023-02-25T06:58:06.464Z,21.95
2023-02-25T07:00:33.644Z,22.04
2023-02-25T07:03:03.290Z,21.88
2023-02-25T07:05:30.154Z,22.04
2023-02-25T07:07:56.951Z,22.08
2023-02-25T07:10:23.769Z,22.18
2023-02-25T07:12:51.978Z,22.31
2023-02-25T07:15:19.878Z,22.26
2023-02-25T07:17:48.346Z,22.25
2023-02-25T07:20:17.400Z,22.25
2023-02-25T07:22:44.922Z,22.01
2023-02-25T07:25:12.291Z,21.95
2023-02-25T07:27:44.628Z,22.20
2023-02-25T07:30:13.307Z,22.15
2023-02-25T07:32:41.420Z,22.25
2023-02-25T07:35:09.300Z,22.18
2023-02-25T07:37:36.437Z,22.09
2023-02-25T07:40:04.877Z,22.17
2023-02-25T07:42:31.719Z,22.11
2023-02-25T07:45:02.188Z,22.10
2023-02-25T07:47:29.155Z,22.26
2023-02-25T07:49:55.914Z,22.00
2023-02-25T07:52:23.085Z,22.32
2023-02-25T07:54:49.847Z,22.00
2023-02-25T07:57:19.431Z,21.91
2023-02-25T08:00:12.054Z,22.33
2023-02-25T08:02:42.842Z,22.20
2023-02-25T08:05:10.568Z,22.14
2023-02-25T08:07:38.288Z,22.25
2023-02-25T08:10:05.512Z,22.15
2023-02-25T08:12:32.411Z,22.26
2023-02-25T08:15:02.361Z,22.32
2023-02-25T08:17:32.600Z,22.26
2023-02-25T08:19:59.479Z,22.28
2023-02-25T08:22:26.394Z,22.27
2023-02-25T08:24:53.144Z,22.29
2023-02-25T08:27:21.824Z,22.19
2023-02-25T08:29:48.734Z,22.23
2023-02-25T08:32:15.881Z,22.16
2023-02-25T08:34:42.829Z,22.18
2023-02-25T08:37:11.409Z,22.21
2023-02-25T08:39:38.274Z,21.98
2023-02-25T08:42:05.350Z,22.09
2023-02-25T08:44:32.237Z,22.30
2023-02-25T08:47:02.188Z,22.27
2023-02-25T08:49:29.498Z,22.23
2023-02-25T08:51:56.258Z,21.89
2023-02-25T08:54:23.564Z,22.22
2023-02-25T08:56:51.166Z,22.20
2023-02-25T08:59:18.077Z,22.18
2023-02-25T09:01:45.403Z,21.93
2023-02-25T09:04:13.284Z,22.33
2023-02-25T09:06:43.270Z,22.09
2023-02-25T09:09:11.717Z,22.19
2023-02-25T09:11:39.581Z,21.91
2023-02-25T09:14:08.196Z,22.22
2023-02-25T09:16:35.540Z,22.00
2023-02-25T09:19:03.035Z,22.23
2023-02-25T09:21:29.910Z,22.08
2023-02-25T09:23:56.724Z,22.23
2023-02-25T09:26:23.612Z,22.28
2023-02-25T09:28:50.450Z,22.10
2023-02-25T09:31:18.464Z,22.19
2023-02-25T09:33:45.410Z,21.89
2023-02-25T09:36:14.923Z,21.99
2023-02-25T09:38:42.181Z,21.91
2023-02-25T09:41:35.630Z,22.12
2023-02-25T09:44:10.773Z,22.11
2023-02-25T09:46:41.665Z,22.08
2023-02-25T09:49:15.904Z,21.97
2023-02-25T09:51:44.609Z,22.01
2023-02-25T09:54:39.798Z,22.16
2023-02-25T09:57:07.503Z,22.13
2023-02-25T09:59:35.953Z,22.07
2023-02-25T10:02:21.333Z,22.27
2023-02-25T10:05:18.319Z,22.13
2023-02-25T10:08:15.701Z,22.24
2023-02-25T10:11:10.218Z,22.24
2023-02-25T10:13:47.535Z,22.17
2023-02-25T10:16:29.332Z,22.36
2023-02-25T10:19:04.987Z,22.37
2023-02-25T10:21:44.224Z,22.38
2023-02-25T10:24:39.346Z,22.14
2023-02-25T10:27:23.498Z,22.27
2023-02-25T10:30:28.200Z,22.26
2023-02-25T10:32:55.400Z,22.29
2023-02-25T10:35:27.493Z,22.34
2023-02-25T10:37:54.252Z,22.41
2023-02-25T10:40:23.031Z,22.08
2023-02-25T10:42:53.881Z,22.13
2023-02-25T10:45:25.464Z,22.38
2023-02-25T10:47:58.360Z,22.36
2023-02-25T10:50:39.272Z,22.26
2023-02-25T10:53:18.471Z,22.24
2023-02-25T10:55:54.574Z,22.40
2023-02-25T10:58:40.940Z,22.32
2023-02-25T11:01:19.414Z,22.32
2023-02-25T11:03:59.666Z,22.46
2023-02-25T11:06:35.476Z,22.38
2023-02-25T11:11:32.553Z,22.34
2023-02-25T11:14:00.270Z,22.47
2023-02-25T11:16:30.242Z,22.48
2023-02-25T11:18:59.241Z,22.07
2023-02-25T11:21:34.815Z,22.20
2023-02-25T11:24:04.755Z,22.52
2023-02-25T11:26:34.424Z,22.39
2023-02-25T11:29:05.072Z,22.46
2023-02-25T11:31:36.386Z,22.30
2023-02-25T11:34:07.271Z,22.45
2023-02-25T11:36:36.353Z,22.50
2023-02-25T11:39:07.057Z,22.47
2023-02-25T11:41:34.027Z,22.45
2023-02-25T11:44:20.414Z,22.56
2023-02-25T11:47:09.865Z,22.40
2023-02-25T11:49:50.620Z,22.52
2023-02-25T11:52:37.792Z,22.50
2023-02-25T11:55:33.792Z,22.57
2023-02-25T11:58:13.667Z,22.57
2023-02-25T12:00:47.869Z,22.49
2023-02-25T12:03:51.739Z,22.60
2023-02-25T12:06:37.170Z,22.60
2023-02-25T12:09:25.930Z,22.61
2023-02-25T12:12:10.911Z,22.63
2023-02-25T12:15:01.195Z,22.57
2023-02-25T12:17:32.357Z,22.56
2023-02-25T12:20:30.104Z,22.62
2023-02-25T12:23:12.033Z,22.58
2023-02-25T12:25:47.823Z,22.60
2023-02-25T12:28:45.225Z,22.66
2023-02-25T12:31:20.485Z,22.57
2023-02-25T12:34:09.475Z,22.66
2023-02-25T12:37:21.212Z,22.66
2023-02-25T12:39:53.538Z,22.64
2023-02-25T12:42:47.055Z,22.66
2023-02-25T12:45:32.061Z,22.67
2023-02-25T12:48:29.934Z,22.66
2023-02-25T12:51:05.640Z,22.67
2023-02-25T12:53:38.532Z,22.37
2023-02-25T12:56:16.842Z,22.55
2023-02-25T12:58:55.631Z,22.60
2023-02-25T13:01:28.454Z,22.69
2023-02-25T13:03:58.290Z,22.77
2023-02-25T13:06:50.276Z,22.83
2023-02-25T13:09:24.748Z,22.58
2023-02-25T13:12:18.918Z,22.82
2023-02-25T13:14:54.484Z,22.62
2023-02-25T13:17:21.307Z,22.87
2023-02-25T13:20:00.761Z,22.94
2023-02-25T13:22:45.185Z,23.02
2023-02-25T13:25:19.919Z,23.05
2023-02-25T13:28:17.527Z,23.20
2023-02-25T13:31:00.085Z,23.21
2023-02-25T13:33:31.297Z,22.99
2023-02-25T13:36:11.953Z,23.21
2023-02-25T13:38:38.629Z,23.20
2023-02-25T13:41:08.310Z,23.18
2023-02-25T13:44:01.676Z,23.19
2023-02-25T13:46:49.928Z,23.18
2023-02-25T13:49:22.585Z,23.16
2023-02-25T13:52:10.517Z,23.15
2023-02-25T13:54:47.660Z,23.12
2023-02-25T13:57:40.157Z,23.11
2023-02-25T14:00:22.277Z,23.10
2023-02-25T14:03:04.509Z,23.08
2023-02-25T14:06:00.189Z,23.05
2023-02-25T14:09:06.626Z,23.08
2023-02-25T14:11:57.754Z,23.04
2023-02-25T14:14:40.324Z,23.05
2023-02-25T14:17:09.722Z,23.03
2023-02-25T14:19:58.106Z,23.07
2023-02-25T14:22:30.164Z,23.04
2023-02-25T14:25:06.167Z,23.05
2023-02-25T14:27:46.730Z,22.99
2023-02-25T14:30:36.608Z,23.03
2023-02-25T14:33:27.870Z,23.07
2023-02-25T14:36:38.698Z,23.09
2023-02-25T14:39:29.545Z,23.05
2023-02-25T14:42:35.281Z,23.04
2023-02-25T14:45:12.314Z,23.00
2023-02-25T14:47:59.107Z,22.99
2023-02-25T14:50:26.311Z,22.99
2023-02-25T14:53:07.983Z,23.02
2023-02-25T14:56:15.831Z,23.03
2023-02-25T14:59:13.930Z,23.09
2023-02-25T15:02:00.749Z,23.07
2023-02-25T15:04:38.198Z,23.18
2023-02-25T15:07:19.445Z,23.21
2023-02-25T15:10:08.062Z,23.29
2023-02-25T15:12:54.597Z,23.34
2023-02-25T15:15:47.903Z,23.39
2023-02-25T15:18:38.613Z,23.43
2023-02-25T15:21:48.280Z,23.46
2023-02-25T15:24:27.099Z,23.48
2023-02-25T15:26:54.218Z,23.40
2023-02-25T15:29:43.834Z,23.48
2023-02-25T15:32:10.611Z,23.45
2023-02-25T15:34:38.013Z,23.44
2023-02-25T15:37:25.042Z,23.49
2023-02-25T15:39:56.055Z,23.39
2023-02-25T15:42:58.485Z,23.40
2023-02-25T15:45:27.952Z,23.49
2023-02-25T15:48:09.545Z,23.50
2023-02-25T15:50:42.220Z,23.46
2023-02-25T15:53:24.706Z,23.46
2023-02-25T15:55:57.759Z,23.41
2023-02-25T15:58:24.204Z,23.46
2023-02-25T16:00:54.508Z,23.43
2023-02-25T16:03:39.741Z,23.39
2023-02-25T16:06:32.192Z,23.39
2023-02-25T16:09:06.769Z,23.31
2023-02-25T16:11:46.686Z,23.21
2023-02-25T16:14:21.001Z,23.24
2023-02-25T16:16:52.775Z,23.25
2023-02-25T16:19:21.047Z,23.22
2023-02-25T16:22:09.331Z,23.25
2023-02-25T16:24:36.161Z,23.18
2023-02-25T16:27:08.183Z,23.15
2023-02-25T16:30:03.512Z,23.21
2023-02-25T16:32:54.649Z,23.19
2023-02-25T16:35:34.448Z,23.16
2023-02-25T16:38:13.189Z,23.20
2023-02-25T16:40:40.900Z,23.18
2023-02-25T16:43:14.664Z,23.19
2023-02-25T16:46:07.842Z,23.18
2023-02-25T16:48:50.860Z,23.18
2023-02-25T16:51:31.868Z,23.20
2023-02-25T16:54:01.153Z,23.20
2023-02-25T16:56:28.834Z,23.18
2023-02-25T16:59:14.732Z,23.18
2023-02-25T17:01:59.539Z,23.16
2023-02-25T17:04:34.426Z,23.13
2023-02-25T17:07:10.965Z,23.15
2023-02-25T17:09:59.295Z,23.15
2023-02-25T17:12:47.448Z,23.11
2023-02-25T17:15:20.306Z,23.13
2023-02-25T17:17:47.177Z,22.94
2023-02-25T17:20:28.105Z,22.82
2023-02-25T17:22:57.003Z,22.79
2023-02-25T17:25:30.784Z,22.80
2023-02-25T17:27:59.643Z,22.75
2023-02-25T17:30:46.689Z,23.02
2023-02-25T17:33:26.722Z,22.99
2023-02-25T17:36:00.005Z,22.72
2023-02-25T17:38:29.113Z,23.18
2023-02-25T17:40:57.178Z,22.98
2023-02-25T17:43:26.054Z,22.78
2023-02-25T17:46:14.819Z,22.72
2023-02-25T17:48:43.470Z,22.77
2023-02-25T17:51:10.740Z,22.99
2023-02-25T17:53:57.779Z,22.93
2023-02-25T17:56:28.956Z,22.98
2023-02-25T17:59:00.989Z,22.62
2023-02-25T18:01:31.047Z,22.98
2023-02-25T18:04:02.427Z,22.78
2023-02-25T18:06:41.347Z,22.79
2023-02-25T18:09:32.238Z,22.98
2023-02-25T18:12:00.189Z,22.63
2023-02-25T18:14:40.729Z,23.01
2023-02-25T18:17:30.796Z,23.03
2023-02-25T18:19:59.324Z,22.97
2023-02-25T18:22:38.493Z,23.00
2023-02-25T18:25:08.106Z,22.82
2023-02-25T18:27:38.157Z,22.59
2023-02-25T18:30:21.880Z,22.86
2023-02-25T18:32:50.553Z,22.63
2023-02-25T18:35:18.161Z,22.86
2023-02-25T18:37:45.765Z,22.68
2023-02-25T18:40:17.832Z,22.53
2023-02-25T18:42:44.526Z,22.58
2023-02-25T18:45:19.373Z,22.56
2023-02-25T18:47:46.157Z,22.54
2023-02-25T18:50:15.499Z,22.63
2023-02-25T18:52:42.795Z,22.58
2023-02-25T18:55:29.667Z,22.43
2023-02-25T18:57:57.307Z,22.72
2023-02-25T19:00:24.845Z,22.69
2023-02-25T19:02:56.112Z,22.66
2023-02-25T19:05:23.447Z,22.78
2023-02-25T19:07:50.741Z,22.67
2023-02-25T19:10:20.322Z,22.62
2023-02-25T19:12:49.710Z,22.42
2023-02-25T19:15:20.460Z,22.48
2023-02-25T19:18:07.878Z,22.39
2023-02-25T19:20:36.150Z,22.56
2023-02-25T19:23:04.747Z,22.80
2023-02-25T19:25:34.953Z,22.58
2023-02-25T19:28:02.245Z,22.64
2023-02-25T19:30:31.117Z,22.39
2023-02-25T19:33:04.546Z,22.38
2023-02-25T19:35:33.932Z,22.40
2023-02-25T19:38:00.883Z,22.63
2023-02-25T19:40:29.211Z,22.76
2023-02-25T19:42:56.353Z,22.70
2023-02-25T19:45:23.937Z,22.53
2023-02-25T19:47:51.056Z,22.45
2023-02-25T19:50:19.223Z,22.77
2023-02-25T19:52:47.385Z,22.61
2023-02-25T19:55:14.356Z,22.69
2023-02-25T19:57:41.717Z,22.27
2023-02-25T20:00:14.075Z,22.43
2023-02-25T20:02:41.227Z,22.63
2023-02-25T20:05:09.402Z,22.49
2023-02-25T20:07:36.400Z,22.30
2023-02-25T20:10:05.034Z,22.60
2023-02-25T20:12:32.093Z,22.51
2023-02-25T20:14:59.172Z,22.38
2023-02-25T20:17:26.732Z,22.52
2023-02-25T20:19:54.007Z,22.37
2023-02-25T20:22:23.887Z,22.51
2023-02-25T20:24:52.638Z,22.57
2023-02-25T20:27:20.145Z,22.60
2023-02-25T20:29:47.845Z,22.65
2023-02-25T20:32:16.778Z,22.48
2023-02-25T20:34:43.996Z,22.56
2023-02-25T20:37:14.915Z,22.68
2023-02-25T20:39:49.702Z,22.42
2023-02-25T20:42:21.754Z,22.43
2023-02-25T20:44:51.221Z,22.22
2023-02-25T20:47:25.350Z,22.66
2023-02-25T20:49:53.367Z,22.52
2023-02-25T20:52:20.548Z,22.37
2023-02-25T20:54:48.913Z,22.55
2023-02-25T20:57:17.530Z,22.26
2023-02-25T20:59:44.988Z,22.29
2023-02-25T21:02:12.860Z,22.41
2023-02-25T21:04:40.753Z,22.21
2023-02-25T21:07:07.859Z,22.25
2023-02-25T21:09:36.293Z,22.39
2023-02-25T21:12:16.899Z,22.41
2023-02-25T21:14:44.053Z,22.35
2023-02-25T21:17:13.884Z,22.45
2023-02-25T21:19:40.872Z,22.58
2023-02-25T21:22:07.963Z,22.34
2023-02-25T21:24:34.972Z,22.45
2023-02-25T21:29:28.970Z,22.30
2023-02-25T21:31:55.888Z,22.27
2023-02-25T21:34:22.860Z,22.17
2023-02-25T21:36:50.092Z,22.30
2023-02-25T21:39:16.998Z,22.54
2023-02-25T21:41:44.907Z,22.49
2023-02-25T21:44:12.439Z,22.21
2023-02-25T21:46:39.899Z,22.10
2023-02-25T21:49:06.842Z,22.19
2023-02-25T21:51:34.142Z,22.27
2023-02-25T21:54:03.804Z,22.13
2023-02-25T21:56:32.090Z,22.22
2023-02-25T21:59:05.926Z,22.12
2023-02-25T22:01:34.160Z,22.37
2023-02-25T22:04:01.022Z,22.10
2023-02-25T22:06:28.155Z,22.16
2023-02-25T22:08:55.382Z,22.21
2023-02-25T22:11:27.094Z,22.13
2023-02-25T22:13:53.906Z,22.03
2023-02-25T22:16:20.814Z,22.15
2023-02-25T22:18:47.585Z,22.03
2023-02-25T22:21:30.007Z,22.00
2023-02-25T22:23:58.385Z,21.99
2023-02-25T22:26:27.357Z,22.16
2023-02-25T22:28:55.311Z,22.20
